Time;durP1;ratioP1;P1;durP2;ratioP2;P2;SDS_P1;SDS_P2;PMS_P1;PMS_P2;Temp;Humidity;BMP_temperature;BMP_pressure;BME280_temperature;BME280_humidity;BME280_pressure;Samples;Min_cycle;Max_cycle;Signal;HPM_P1;HPM_P2
2023/03/19 00:00:07;;;;;;;22.48;19.63;;;;;;;;;;5034999;28;20049;-74
2023/03/19 00:02:33;;;;;;;22.20;18.77;;;;;;;;;;5035459;28;20044;-74
2023/03/19 00:04:59;;;;;;;22.92;19.58;;;;;;;;;;5053349;28;20041;-74
2023/03/19 00:07:26;;;;;;;22.73;19.88;;;;;;;;;;5053400;28;20048;-74
2023/03/19 00:09:52;;;;;;;23.98;19.42;;;;;;;;;;5067807;28;20447;-74
2023/03/19 00:12:18;;;;;;;23.92;19.83;;;;;;;;;;5055461;28;20488;-74
2023/03/19 00:14:44;;;;;;;22.55;19.80;;;;;;;;;;5054866;28;20565;-74
2023/03/19 00:17:10;;;;;;;26.27;20.35;;;;;;;;;;5053666;28;20094;-74
2023/03/19 00:19:36;;;;;;;22.85;20.35;;;;;;;;;;5053101;28;20076;-74
2023/03/19 00:22:02;;;;;;;24.95;20.80;;;;;;;;;;5033482;28;20068;-74
2023/03/19 00:24:32;;;;;;;25.17;19.67;;;;;;;;;;5035121;28;20088;-74
2023/03/19 00:26:58;;;;;;;25.52;21.88;;;;;;;;;;5051152;28;20045;-74
2023/03/19 00:29:24;;;;;;;23.98;20.52;;;;;;;;;;5070493;28;20075;-74
2023/03/19 00:31:50;;;;;;;24.10;19.25;;;;;;;;;;5054912;28;20045;-74
2023/03/19 00:34:20;;;;;;;25.55;20.60;;;;;;;;;;5071957;28;20044;-74
2023/03/19 00:36:46;;;;;;;25.92;21.77;;;;;;;;;;5072452;28;20041;-74
2023/03/19 00:39:12;;;;;;;23.88;20.30;;;;;;;;;;5052651;28;20048;-72
2023/03/19 00:41:38;;;;;;;22.33;19.38;;;;;;;;;;5072756;28;20051;-72
2023/03/19 00:44:05;;;;;;;24.63;19.80;;;;;;;;;;5072720;28;20052;-73
2023/03/19 00:46:31;;;;;;;24.00;20.25;;;;;;;;;;5072667;28;20049;-73
2023/03/19 00:48:57;;;;;;;24.02;19.23;;;;;;;;;;5063531;28;20049;-73
2023/03/19 00:51:24;;;;;;;23.40;19.33;;;;;;;;;;5066416;28;20378;-72
2023/03/19 00:53:50;;;;;;;23.77;20.20;;;;;;;;;;5052530;28;20048;-73
2023/03/19 00:56:17;;;;;;;23.15;19.13;;;;;;;;;;5061483;28;20041;-73
2023/03/19 00:58:43;;;;;;;24.92;19.30;;;;;;;;;;5072609;28;20390;-73
2023/03/19 01:01:10;;;;;;;23.77;20.00;;;;;;;;;;5059387;28;20045;-73
2023/03/19 01:03:36;;;;;;;24.48;19.25;;;;;;;;;;5034634;28;20124;-72
2023/03/19 01:06:02;;;;;;;24.33;20.40;;;;;;;;;;5052370;28;20052;-73
2023/03/19 01:08:28;;;;;;;24.13;20.02;;;;;;;;;;5034220;28;20052;-73
2023/03/19 01:10:55;;;;;;;23.92;19.42;;;;;;;;;;5052515;28;20060;-73
2023/03/19 01:13:21;;;;;;;22.70;19.08;;;;;;;;;;5065675;28;20085;-73
2023/03/19 01:15:46;;;;;;;22.92;19.17;;;;;;;;;;5072580;28;20169;-73
2023/03/19 01:18:13;;;;;;;24.33;20.20;;;;;;;;;;5054206;28;20171;-73
2023/03/19 01:20:41;;;;;;;25.30;19.98;;;;;;;;;;5072449;28;20049;-73
2023/03/19 01:23:07;;;;;;;23.17;19.90;;;;;;;;;;5072128;28;20056;-73
2023/03/19 01:25:33;;;;;;;24.33;19.75;;;;;;;;;;5054371;28;20492;-73
2023/03/19 01:27:59;;;;;;;21.90;19.58;;;;;;;;;;5058858;28;20037;-73
2023/03/19 01:30:25;;;;;;;21.55;18.50;;;;;;;;;;5069000;28;20046;-73
2023/03/19 01:32:52;;;;;;;21.92;17.92;;;;;;;;;;5071973;28;20052;-73
2023/03/19 01:35:18;;;;;;;23.67;19.30;;;;;;;;;;5038874;28;20397;-73
2023/03/19 01:37:44;;;;;;;21.30;17.73;;;;;;;;;;5062367;28;20455;-73
2023/03/19 01:40:13;;;;;;;23.60;18.63;;;;;;;;;;5054944;28;20135;-73
2023/03/19 01:42:56;;;;;;;24.67;18.30;;;;;;;;;;5055916;28;20045;-73
2023/03/19 01:45:32;;;;;;;19.95;17.27;;;;;;;;;;5053402;28;20044;-74
2023/03/19 01:47:59;;;;;;;21.50;17.27;;;;;;;;;;5058254;28;20051;-73
2023/03/19 01:50:28;;;;;;;20.55;17.10;;;;;;;;;;5046126;28;20045;-73
2023/03/19 01:52:54;;;;;;;21.17;16.13;;;;;;;;;;5075821;28;20120;-73
2023/03/19 01:55:21;;;;;;;20.10;16.13;;;;;;;;;;5069864;28;20505;-73
2023/03/19 01:57:47;;;;;;;20.20;16.15;;;;;;;;;;5063943;28;20397;-73
2023/03/19 02:00:13;;;;;;;21.17;16.35;;;;;;;;;;5062502;28;20130;-73
2023/03/19 02:02:40;;;;;;;18.73;16.23;;;;;;;;;;5055600;28;20048;-73
2023/03/19 02:05:09;;;;;;;18.65;15.38;;;;;;;;;;5037851;28;20451;-73
2023/03/19 02:07:36;;;;;;;17.67;14.05;;;;;;;;;;5059662;28;20048;-73
2023/03/19 02:10:05;;;;;;;16.45;13.65;;;;;;;;;;5056849;28;20062;-73
2023/03/19 02:12:31;;;;;;;16.13;12.68;;;;;;;;;;5064618;28;20045;-73
2023/03/19 02:14:57;;;;;;;15.77;12.25;;;;;;;;;;5037101;28;20102;-73
2023/03/19 02:17:23;;;;;;;14.85;11.82;;;;;;;;;;5074785;28;20128;-72
2023/03/19 02:19:53;;;;;;;13.77;11.88;;;;;;;;;;5074966;28;20378;-73
2023/03/19 02:22:21;;;;;;;14.23;11.85;;;;;;;;;;5068592;28;20443;-73
2023/03/19 02:24:59;;;;;;;16.10;12.85;;;;;;;;;;5054241;28;20052;-73
2023/03/19 02:27:25;;;;;;;14.55;12.15;;;;;;;;;;5056242;28;20110;-73
2023/03/19 02:29:51;;;;;;;16.25;12.98;;;;;;;;;;5034625;28;20052;-72
2023/03/19 02:32:17;;;;;;;16.10;12.95;;;;;;;;;;5048499;28;20040;-73
2023/03/19 02:34:44;;;;;;;15.48;13.02;;;;;;;;;;5056219;28;20040;-73
2023/03/19 02:37:19;;;;;;;16.13;13.35;;;;;;;;;;5046225;28;20133;-74
2023/03/19 02:39:57;;;;;;;15.63;12.73;;;;;;;;;;5043227;28;20163;-72
2023/03/19 02:42:24;;;;;;;16.63;12.55;;;;;;;;;;5074685;28;20473;-73
2023/03/19 02:44:50;;;;;;;15.43;12.90;;;;;;;;;;5055585;28;20049;-73
2023/03/19 02:47:16;;;;;;;15.77;12.73;;;;;;;;;;5055173;28;20440;-73
2023/03/19 02:49:42;;;;;;;16.27;12.88;;;;;;;;;;5054436;28;20513;-74
2023/03/19 02:52:09;;;;;;;15.55;12.43;;;;;;;;;;5038722;28;20124;-73
2023/03/19 02:54:35;;;;;;;14.18;11.57;;;;;;;;;;5020425;28;20091;-73
2023/03/19 02:57:01;;;;;;;13.93;12.00;;;;;;;;;;5048282;28;20041;-73
2023/03/19 02:59:27;;;;;;;14.13;11.52;;;;;;;;;;5036801;28;20048;-73
2023/03/19 03:01:53;;;;;;;14.80;11.40;;;;;;;;;;5068375;28;20115;-73
2023/03/19 03:04:19;;;;;;;13.85;10.73;;;;;;;;;;5056855;28;20459;-73
2023/03/19 03:06:45;;;;;;;14.70;11.38;;;;;;;;;;5056937;28;20044;-73
2023/03/19 03:09:12;;;;;;;13.32;10.65;;;;;;;;;;5056469;28;20272;-73
2023/03/19 03:11:40;;;;;;;12.85;10.20;;;;;;;;;;5074897;28;20072;-73
2023/03/19 03:14:06;;;;;;;13.98;10.05;;;;;;;;;;5060203;28;20052;-73
2023/03/19 03:16:32;;;;;;;13.82;9.80;;;;;;;;;;5054656;28;20540;-73
2023/03/19 03:18:59;;;;;;;12.10;9.85;;;;;;;;;;5034885;28;20095;-73
2023/03/19 03:21:25;;;;;;;12.85;9.65;;;;;;;;;;5054917;28;20044;-72
2023/03/19 03:23:51;;;;;;;14.55;8.93;;;;;;;;;;5054157;28;20049;-72
2023/03/19 03:26:17;;;;;;;11.50;9.13;;;;;;;;;;5054629;28;20033;-73
2023/03/19 03:28:43;;;;;;;12.23;8.60;;;;;;;;;;5019904;28;20127;-72
2023/03/19 03:31:09;;;;;;;11.68;8.55;;;;;;;;;;5042783;28;20051;-73
2023/03/19 03:33:36;;;;;;;11.68;8.68;;;;;;;;;;5061070;28;20091;-73
2023/03/19 03:36:02;;;;;;;11.77;7.82;;;;;;;;;;5054129;28;20059;-73
2023/03/19 03:38:28;;;;;;;11.77;8.30;;;;;;;;;;5054046;28;20485;-73
2023/03/19 03:40:54;;;;;;;11.05;8.00;;;;;;;;;;5053380;28;20049;-73
2023/03/19 03:43:21;;;;;;;9.65;7.60;;;;;;;;;;5049628;28;20055;-73
2023/03/19 03:45:47;;;;;;;8.95;7.57;;;;;;;;;;5073260;28;20048;-73
2023/03/19 03:48:13;;;;;;;11.13;7.30;;;;;;;;;;5019746;28;20049;-73
2023/03/19 03:50:40;;;;;;;10.00;7.40;;;;;;;;;;5022888;28;20045;-73
2023/03/19 03:53:07;;;;;;;8.95;6.97;;;;;;;;;;5049220;28;20067;-73
2023/03/19 03:55:33;;;;;;;10.40;7.35;;;;;;;;;;5036865;28;20044;-73
2023/03/19 03:57:59;;;;;;;9.07;7.32;;;;;;;;;;5022290;28;20047;-74
2023/03/19 04:00:26;;;;;;;9.85;7.07;;;;;;;;;;5073210;28;20401;-73
2023/03/19 04:02:52;;;;;;;9.32;6.80;;;;;;;;;;5054803;28;20109;-73
2023/03/19 04:05:18;;;;;;;8.48;6.55;;;;;;;;;;5056530;28;20053;-74
2023/03/19 04:07:44;;;;;;;9.10;7.05;;;;;;;;;;5073647;28;20048;-73
2023/03/19 04:10:11;;;;;;;9.15;6.63;;;;;;;;;;5052936;28;20052;-73
2023/03/19 04:12:38;;;;;;;8.55;6.53;;;;;;;;;;5062849;28;20044;-74
2023/03/19 04:15:05;;;;;;;9.40;6.70;;;;;;;;;;5055533;28;20045;-73
2023/03/19 04:17:31;;;;;;;8.43;7.25;;;;;;;;;;5056531;28;20347;-73
2023/03/19 04:19:57;;;;;;;8.90;6.55;;;;;;;;;;5053193;28;20057;-73
2023/03/19 04:22:23;;;;;;;9.45;6.60;;;;;;;;;;5035189;28;20045;-73
2023/03/19 04:24:49;;;;;;;9.90;7.05;;;;;;;;;;5053502;28;20128;-73
2023/03/19 04:27:15;;;;;;;9.90;6.93;;;;;;;;;;5018922;28;20052;-73
2023/03/19 04:29:41;;;;;;;11.40;7.55;;;;;;;;;;5053037;28;20080;-73
2023/03/19 04:32:07;;;;;;;11.68;7.03;;;;;;;;;;5034961;28;20044;-73
2023/03/19 04:34:33;;;;;;;8.30;6.57;;;;;;;;;;5067529;28;20076;-73
2023/03/19 04:36:59;;;;;;;11.38;7.00;;;;;;;;;;5054581;28;20084;-73
2023/03/19 04:39:25;;;;;;;8.93;6.95;;;;;;;;;;5034779;28;20080;-73
2023/03/19 04:41:51;;;;;;;10.00;6.95;;;;;;;;;;5055912;28;20069;-73
2023/03/19 04:44:18;;;;;;;10.32;6.85;;;;;;;;;;5068064;28;20041;-73
2023/03/19 04:46:44;;;;;;;9.95;6.82;;;;;;;;;;5038767;28;20052;-74
2023/03/19 04:49:11;;;;;;;10.48;6.75;;;;;;;;;;5072614;28;20083;-73
2023/03/19 04:51:38;;;;;;;10.40;7.30;;;;;;;;;;5035184;28;20056;-73
2023/03/19 04:54:04;;;;;;;9.60;6.88;;;;;;;;;;5035910;28;20048;-73
2023/03/19 04:56:31;;;;;;;9.45;7.07;;;;;;;;;;5064600;28;20075;-73
2023/03/19 04:58:57;;;;;;;9.20;7.35;;;;;;;;;;5052289;28;20123;-73
2023/03/19 05:01:23;;;;;;;8.90;6.65;;;;;;;;;;5062593;28;20041;-73
2023/03/19 05:03:49;;;;;;;8.15;6.60;;;;;;;;;;5070721;28;20099;-73
2023/03/19 05:06:18;;;;;;;9.48;6.97;;;;;;;;;;5053012;28;20397;-73
2023/03/19 05:08:45;;;;;;;8.98;7.32;;;;;;;;;;5072358;28;20052;-73
2023/03/19 05:11:11;;;;;;;9.45;6.72;;;;;;;;;;5054540;28;20532;-73
2023/03/19 05:13:37;;;;;;;9.77;6.88;;;;;;;;;;5059738;28;20055;-73
2023/03/19 05:16:03;;;;;;;9.68;7.30;;;;;;;;;;5034745;28;20440;-73
2023/03/19 05:18:29;;;;;;;9.82;7.53;;;;;;;;;;5034687;28;20432;-74
2023/03/19 05:20:55;;;;;;;9.85;8.02;;;;;;;;;;5034492;28;20142;-73
2023/03/19 05:23:21;;;;;;;11.57;8.23;;;;;;;;;;5052311;28;20094;-73
2023/03/19 05:25:48;;;;;;;10.48;7.97;;;;;;;;;;5034536;28;20503;-73
2023/03/19 05:28:14;;;;;;;9.25;8.00;;;;;;;;;;5034665;28;20048;-73
2023/03/19 05:30:41;;;;;;;10.88;8.90;;;;;;;;;;5052368;28;20044;-73
2023/03/19 05:33:07;;;;;;;10.57;7.85;;;;;;;;;;5052209;28;20067;-73
2023/03/19 05:35:34;;;;;;;12.40;8.45;;;;;;;;;;5065242;28;20188;-73
2023/03/19 05:38:00;;;;;;;10.45;7.63;;;;;;;;;;5047323;28;20048;-73
2023/03/19 05:40:26;;;;;;;10.15;7.63;;;;;;;;;;5071823;28;20040;-73
2023/03/19 05:42:52;;;;;;;10.57;7.38;;;;;;;;;;5071968;28;20117;-73
2023/03/19 05:45:18;;;;;;;10.50;8.00;;;;;;;;;;5051466;28;20045;-73
2023/03/19 05:47:47;;;;;;;11.27;7.85;;;;;;;;;;5069321;28;20105;-73
2023/03/19 05:50:13;;;;;;;9.95;7.43;;;;;;;;;;5065546;28;20048;-74
2023/03/19 05:52:39;;;;;;;8.95;7.05;;;;;;;;;;5065539;28;20041;-73
2023/03/19 05:55:05;;;;;;;11.07;7.90;;;;;;;;;;5024566;28;20467;-73
2023/03/19 05:57:31;;;;;;;9.23;7.28;;;;;;;;;;5043156;28;20049;-73
2023/03/19 05:59:58;;;;;;;9.32;7.60;;;;;;;;;;5017773;28;20111;-73
2023/03/19 06:02:24;;;;;;;10.68;7.80;;;;;;;;;;5057719;28;20374;-73
2023/03/19 06:04:50;;;;;;;9.75;7.30;;;;;;;;;;5070107;28;20499;-73
2023/03/19 06:07:16;;;;;;;8.43;7.00;;;;;;;;;;5053164;28;20338;-73
2023/03/19 06:09:42;;;;;;;9.45;7.20;;;;;;;;;;5068462;28;20147;-73
2023/03/19 06:12:08;;;;;;;11.85;7.53;;;;;;;;;;5052269;28;20516;-73
2023/03/19 06:14:34;;;;;;;11.27;7.70;;;;;;;;;;5034971;28;20401;-73
2023/03/19 06:17:00;;;;;;;9.45;7.97;;;;;;;;;;5017409;28;20041;-73
2023/03/19 06:19:26;;;;;;;10.35;7.80;;;;;;;;;;5050811;28;20040;-73
2023/03/19 06:21:52;;;;;;;10.48;8.18;;;;;;;;;;5050304;28;20128;-73
2023/03/19 06:24:18;;;;;;;11.98;8.70;;;;;;;;;;5050791;28;20106;-73
2023/03/19 06:26:44;;;;;;;10.40;8.48;;;;;;;;;;5056349;28;20037;-74
2023/03/19 06:29:10;;;;;;;10.50;8.38;;;;;;;;;;5037110;28;20045;-73
2023/03/19 06:31:38;;;;;;;10.18;8.50;;;;;;;;;;5055318;28;20049;-73
2023/03/19 06:34:05;;;;;;;10.32;8.10;;;;;;;;;;5054961;28;20060;-73
2023/03/19 06:36:31;;;;;;;10.68;8.23;;;;;;;;;;5055439;28;20044;-73
2023/03/19 06:38:57;;;;;;;12.73;8.50;;;;;;;;;;5063708;28;20083;-73
2023/03/19 06:41:24;;;;;;;11.45;8.40;;;;;;;;;;5037409;28;20049;-73
2023/03/19 06:43:50;;;;;;;10.73;7.95;;;;;;;;;;5053052;28;20061;-73
2023/03/19 06:46:16;;;;;;;10.98;8.05;;;;;;;;;;5073803;28;20040;-73
2023/03/19 06:48:42;;;;;;;11.70;8.10;;;;;;;;;;5061221;28;20056;-73
2023/03/19 06:51:08;;;;;;;11.90;8.10;;;;;;;;;;5055033;28;20045;-73
2023/03/19 06:53:34;;;;;;;10.40;7.75;;;;;;;;;;5037792;28;20037;-73
2023/03/19 06:56:00;;;;;;;9.38;7.60;;;;;;;;;;5064153;28;20052;-73
2023/03/19 06:58:26;;;;;;;10.82;7.03;;;;;;;;;;5039560;28;20477;-73
2023/03/19 07:00:53;;;;;;;8.30;6.43;;;;;;;;;;5058538;28;20037;-73
2023/03/19 07:03:19;;;;;;;9.45;6.40;;;;;;;;;;5056737;28;20044;-73
2023/03/19 07:05:45;;;;;;;9.55;6.18;;;;;;;;;;5057002;28;20397;-73
2023/03/19 07:08:11;;;;;;;8.18;6.38;;;;;;;;;;5056816;28;20048;-73
2023/03/19 07:10:38;;;;;;;8.30;6.50;;;;;;;;;;5056678;28;20132;-73
2023/03/19 07:13:04;;;;;;;8.00;6.28;;;;;;;;;;5052996;28;20127;-73
2023/03/19 07:15:30;;;;;;;8.82;5.93;;;;;;;;;;5052595;28;20045;-73
2023/03/19 07:17:56;;;;;;;7.55;5.78;;;;;;;;;;5036379;28;20056;-73
2023/03/19 07:20:22;;;;;;;6.93;5.53;;;;;;;;;;5054525;28;20049;-74
2023/03/19 07:22:51;;;;;;;7.95;5.78;;;;;;;;;;5059114;28;20393;-73
2023/03/19 07:25:17;;;;;;;6.97;5.65;;;;;;;;;;5063638;28;20044;-74
2023/03/19 07:27:44;;;;;;;7.60;5.40;;;;;;;;;;5056901;28;20486;-74
2023/03/19 07:30:11;;;;;;;7.53;6.18;;;;;;;;;;5054284;28;20053;-74
2023/03/19 07:32:37;;;;;;;7.15;5.95;;;;;;;;;;5052506;28;20080;-74
2023/03/19 07:35:04;;;;;;;8.90;6.70;;;;;;;;;;5034185;28;20049;-74
2023/03/19 07:37:30;;;;;;;8.75;6.82;;;;;;;;;;5043992;28;20090;-74
2023/03/19 07:39:56;;;;;;;11.10;6.45;;;;;;;;;;5074138;28;20044;-74
2023/03/19 07:42:22;;;;;;;9.55;7.30;;;;;;;;;;5074019;28;20053;-74
2023/03/19 07:44:48;;;;;;;9.85;6.82;;;;;;;;;;5073631;28;20123;-74
2023/03/19 07:47:14;;;;;;;10.05;7.30;;;;;;;;;;5056295;28;20366;-74
2023/03/19 07:49:40;;;;;;;9.30;7.57;;;;;;;;;;5056032;28;20405;-74
2023/03/19 07:52:07;;;;;;;9.80;7.40;;;;;;;;;;5072428;28;20045;-74
2023/03/19 07:54:33;;;;;;;9.80;8.55;;;;;;;;;;5073463;28;20528;-74
2023/03/19 07:56:59;;;;;;;9.27;8.10;;;;;;;;;;5073499;28;20098;-74
2023/03/19 07:59:25;;;;;;;10.93;9.15;;;;;;;;;;5070306;28;20049;-74
2023/03/19 08:01:51;;;;;;;12.10;9.60;;;;;;;;;;5073430;28;20238;-74
2023/03/19 08:04:17;;;;;;;11.82;9.13;;;;;;;;;;5073396;28;20045;-74
2023/03/19 08:06:43;;;;;;;12.10;10.20;;;;;;;;;;5062201;28;20033;-74
2023/03/19 08:09:09;;;;;;;11.60;9.10;;;;;;;;;;5071903;28;20117;-74
2023/03/19 08:11:35;;;;;;;12.55;10.40;;;;;;;;;;5068161;28;20115;-74
2023/03/19 08:14:02;;;;;;;11.23;9.82;;;;;;;;;;5035253;28;20044;-74
2023/03/19 08:16:28;;;;;;;14.35;10.60;;;;;;;;;;5053604;28;20040;-74
2023/03/19 08:18:54;;;;;;;14.48;11.30;;;;;;;;;;5034912;28;20055;-74
2023/03/19 08:21:20;;;;;;;13.88;11.18;;;;;;;;;;5053699;28;20397;-74
2023/03/19 08:23:46;;;;;;;14.90;11.57;;;;;;;;;;5052682;28;20041;-74
2023/03/19 08:26:12;;;;;;;14.27;12.15;;;;;;;;;;5052393;28;20048;-74
2023/03/19 08:28:38;;;;;;;17.13;12.35;;;;;;;;;;5035276;28;20099;-74
2023/03/19 08:31:08;;;;;;;16.75;12.25;;;;;;;;;;5039089;28;20080;-74
2023/03/19 08:33:34;;;;;;;15.93;13.55;;;;;;;;;;5063406;28;20044;-74
2023/03/19 08:36:08;;;;;;;17.15;12.88;;;;;;;;;;5073221;28;20036;-74
2023/03/19 08:38:34;;;;;;;16.20;12.93;;;;;;;;;;5069707;28;20044;-73
2023/03/19 08:41:02;;;;;;;17.17;13.48;;;;;;;;;;5058707;28;20041;-74
2023/03/19 08:43:30;;;;;;;17.30;13.65;;;;;;;;;;5049720;28;20045;-74
2023/03/19 08:45:56;;;;;;;16.80;13.40;;;;;;;;;;5052879;28;20091;-74
2023/03/19 08:48:22;;;;;;;15.55;12.73;;;;;;;;;;5051712;28;20099;-74
2023/03/19 08:51:00;;;;;;;16.80;12.48;;;;;;;;;;5053723;28;20075;-74
2023/03/19 08:53:26;;;;;;;16.20;13.80;;;;;;;;;;5071889;28;20064;-74
2023/03/19 08:55:53;;;;;;;15.23;13.30;;;;;;;;;;5053992;28;20044;-73
2023/03/19 08:58:19;;;;;;;14.75;12.88;;;;;;;;;;5061730;28;20052;-73
2023/03/19 09:00:46;;;;;;;14.88;11.68;;;;;;;;;;5034409;28;20524;-74
2023/03/19 09:03:12;;;;;;;13.32;11.20;;;;;;;;;;5051262;28;20055;-74
2023/03/19 09:05:38;;;;;;;13.32;11.32;;;;;;;;;;5053423;28;20083;-73
2023/03/19 09:08:04;;;;;;;13.68;11.27;;;;;;;;;;5033987;28;20102;-73
2023/03/19 09:10:30;;;;;;;13.43;10.85;;;;;;;;;;5051496;28;20091;-74
2023/03/19 09:12:57;;;;;;;14.23;11.50;;;;;;;;;;5052196;28;20051;-74
2023/03/19 09:15:23;;;;;;;14.32;10.80;;;;;;;;;;5052301;28;20045;-74
2023/03/19 09:17:49;;;;;;;15.40;11.00;;;;;;;;;;5052050;28;20387;-74
2023/03/19 09:20:15;;;;;;;13.30;10.80;;;;;;;;;;5053246;28;20049;-74
2023/03/19 09:22:41;;;;;;;12.57;10.98;;;;;;;;;;5036479;28;20524;-73
2023/03/19 09:25:07;;;;;;;14.80;11.38;;;;;;;;;;5054193;28;20080;-74
2023/03/19 09:27:34;;;;;;;12.88;10.45;;;;;;;;;;5072233;28;20131;-74
2023/03/19 09:30:00;;;;;;;14.10;10.75;;;;;;;;;;5050678;28;20045;-74
2023/03/19 09:32:26;;;;;;;13.02;9.95;;;;;;;;;;5053475;28;20075;-73
2023/03/19 09:34:52;;;;;;;13.75;10.10;;;;;;;;;;5037656;28;20079;-74
2023/03/19 09:37:18;;;;;;;12.30;10.43;;;;;;;;;;5048901;28;20104;-73
2023/03/19 09:39:44;;;;;;;13.73;10.63;;;;;;;;;;5051989;28;20132;-74
2023/03/19 09:42:29;;;;;;;12.23;10.18;;;;;;;;;;5033231;28;20132;-74
2023/03/19 09:44:55;;;;;;;12.60;10.10;;;;;;;;;;5052600;28;20051;-74
2023/03/19 09:47:22;;;;;;;12.40;10.13;;;;;;;;;;5033748;28;20135;-74
2023/03/19 09:49:49;;;;;;;13.45;9.90;;;;;;;;;;5016831;28;20060;-74
2023/03/19 09:52:24;;;;;;;12.15;9.93;;;;;;;;;;5032864;28;20140;-74
2023/03/19 09:54:51;;;;;;;13.48;9.80;;;;;;;;;;5052118;28;20060;-74
2023/03/19 09:57:18;;;;;;;15.73;9.77;;;;;;;;;;5064799;28;20059;-73
2023/03/19 09:59:44;;;;;;;11.57;9.02;;;;;;;;;;5052275;28;20597;-72
2023/03/19 10:02:27;;;;;;;12.32;8.90;;;;;;;;;;5068279;28;20041;-73
2023/03/19 10:05:04;;;;;;;13.18;9.85;;;;;;;;;;5065737;28;20382;-73
2023/03/19 10:07:49;;;;;;;13.32;9.77;;;;;;;;;;5055432;28;20048;-73
2023/03/19 10:10:26;;;;;;;12.43;10.20;;;;;;;;;;5036834;28;20122;-74
2023/03/19 10:12:56;;;;;;;13.27;10.27;;;;;;;;;;5021048;28;20092;-73
2023/03/19 10:15:27;;;;;;;12.15;10.07;;;;;;;;;;5037683;28;20064;-73
2023/03/19 10:17:53;;;;;;;13.80;10.10;;;;;;;;;;5044343;28;20049;-72
2023/03/19 10:20:29;;;;;;;11.73;9.52;;;;;;;;;;5043370;28;20136;-73
2023/03/19 10:22:55;;;;;;;;;;;;;;;;;;5037660;28;20371;-74
2023/03/19 10:25:24;;;;;;;12.82;9.48;;;;;;;;;;5054069;28;19927;-74
2023/03/19 10:27:55;;;;;;;12.98;10.32;;;;;;;;;;5049448;28;20049;-74
2023/03/19 10:30:21;;;;;;;14.38;10.50;;;;;;;;;;5050883;28;20084;-74
2023/03/19 10:33:00;;;;;;;13.27;10.35;;;;;;;;;;5036831;28;20048;-74
2023/03/19 10:35:45;;;;;;;12.65;9.82;;;;;;;;;;5037333;28;20041;-74
2023/03/19 10:38:21;;;;;;;13.57;10.52;;;;;;;;;;5054621;28;20045;-74
2023/03/19 10:40:56;;;;;;;15.52;10.95;;;;;;;;;;5054755;28;20524;-74
2023/03/19 10:43:25;;;;;;;14.65;10.35;;;;;;;;;;5052618;28;20062;-74
2023/03/19 10:45:51;;;;;;;13.02;10.23;;;;;;;;;;5054561;28;20064;-74
2023/03/19 10:48:18;;;;;;;12.65;10.30;;;;;;;;;;5057177;28;20426;-74
2023/03/19 10:50:44;;;;;;;13.18;9.82;;;;;;;;;;5056951;28;20257;-75
2023/03/19 10:53:14;;;;;;;12.93;9.32;;;;;;;;;;5056206;28;20094;-75
2023/03/19 10:55:56;;;;;;;12.82;10.25;;;;;;;;;;5050507;28;20047;-74
2023/03/19 10:58:24;;;;;;;13.68;10.20;;;;;;;;;;5052874;28;20044;-75
2023/03/19 11:00:56;;;;;;;12.20;9.63;;;;;;;;;;5038364;28;20057;-75
2023/03/19 11:03:45;;;;;;;13.40;10.13;;;;;;;;;;5056560;28;20072;-74
2023/03/19 11:06:30;;;;;;;14.23;10.15;;;;;;;;;;5032546;28;20468;-75
2023/03/19 11:08:58;;;;;;;12.73;10.13;;;;;;;;;;5037213;28;20085;-75
2023/03/19 11:11:26;;;;;;;14.68;10.77;;;;;;;;;;5020956;28;20045;-75
2023/03/19 11:13:53;;;;;;;12.95;10.40;;;;;;;;;;5074479;28;20048;-74
2023/03/19 11:16:19;;;;;;;15.15;11.55;;;;;;;;;;5074490;28;20056;-75
2023/03/19 11:18:48;;;;;;;15.63;12.30;;;;;;;;;;5039896;28;20122;-75
2023/03/19 11:21:25;;;;;;;15.25;12.35;;;;;;;;;;5056724;28;20107;-75
2023/03/19 11:23:52;;;;;;;15.18;12.27;;;;;;;;;;5054219;28;20502;-74
2023/03/19 11:26:20;;;;;;;15.05;12.70;;;;;;;;;;5050266;28;20055;-75
2023/03/19 11:28:49;;;;;;;18.38;13.25;;;;;;;;;;5072086;28;20119;-74
2023/03/19 11:31:18;;;;;;;16.95;13.25;;;;;;;;;;5072661;28;20085;-75
2023/03/19 11:33:49;;;;;;;16.40;13.55;;;;;;;;;;5073998;28;20400;-75
2023/03/19 11:36:18;;;;;;;16.30;12.88;;;;;;;;;;5074168;28;20401;-75
2023/03/19 11:39:02;;;;;;;16.73;13.00;;;;;;;;;;5042264;28;20045;-75
2023/03/19 11:41:47;;;;;;;15.90;12.90;;;;;;;;;;5054469;28;20048;-74
2023/03/19 11:44:33;;;;;;;15.35;12.73;;;;;;;;;;5073720;28;20537;-74
2023/03/19 11:47:18;;;;;;;14.63;11.68;;;;;;;;;;5082604;28;20040;-75
2023/03/19 11:49:47;;;;;;;15.60;11.88;;;;;;;;;;5092890;28;20048;-75
2023/03/19 11:52:13;;;;;;;14.25;11.60;;;;;;;;;;5093246;28;20036;-75
2023/03/19 11:54:58;;;;;;;14.63;12.27;;;;;;;;;;5073153;28;20044;-74
2023/03/19 11:57:37;;;;;;;15.40;11.93;;;;;;;;;;5039033;28;20048;-74
2023/03/19 12:00:21;;;;;;;15.35;11.32;;;;;;;;;;5073741;28;20052;-74
2023/03/19 12:02:53;;;;;;;15.20;12.10;;;;;;;;;;5073563;28;20070;-75
2023/03/19 12:05:45;;;;;;;16.13;12.73;;;;;;;;;;5073508;28;20079;-75
2023/03/19 12:08:11;;;;;;;15.85;12.38;;;;;;;;;;5064382;28;20115;-76
2023/03/19 12:10:42;;;;;;;14.80;12.07;;;;;;;;;;5070557;28;20500;-74
2023/03/19 12:13:14;;;;;;;16.40;11.98;;;;;;;;;;5070059;28;20044;-74
2023/03/19 12:15:52;;;;;;;16.05;12.77;;;;;;;;;;5070176;28;20526;-74
2023/03/19 12:18:27;;;;;;;15.35;12.63;;;;;;;;;;5070089;28;20037;-75
2023/03/19 12:21:00;;;;;;;16.55;12.68;;;;;;;;;;5068525;28;20044;-73
2023/03/19 12:23:39;;;;;;;15.85;12.10;;;;;;;;;;5069829;28;20113;-74
2023/03/19 12:26:24;;;;;;;13.82;11.55;;;;;;;;;;5052094;28;20408;-75
2023/03/19 12:29:03;;;;;;;16.15;12.02;;;;;;;;;;5051376;28;20413;-74
2023/03/19 12:32:05;;;;;;;16.48;13.60;;;;;;;;;;5075889;28;20127;-74
2023/03/19 12:34:35;;;;;;;17.63;13.57;;;;;;;;;;4990612;28;20430;-74
2023/03/19 12:37:01;;;;;;;17.63;13.75;;;;;;;;;;5068772;28;20052;-74
2023/03/19 12:39:32;;;;;;;19.13;14.05;;;;;;;;;;5071098;28;20446;-73
2023/03/19 12:41:59;;;;;;;18.27;13.73;;;;;;;;;;5071366;28;20071;-74
2023/03/19 12:44:37;;;;;;;18.35;13.27;;;;;;;;;;5084165;28;20462;-73
2023/03/19 12:47:07;;;;;;;18.27;14.23;;;;;;;;;;5071302;28;20036;-73
2023/03/19 12:49:35;;;;;;;18.73;13.95;;;;;;;;;;5087326;28;20036;-74
2023/03/19 12:52:07;;;;;;;20.25;15.07;;;;;;;;;;5071454;28;20040;-75
2023/03/19 12:54:36;;;;;;;20.10;15.05;;;;;;;;;;5051160;28;20040;-74
2023/03/19 12:57:06;;;;;;;21.00;15.20;;;;;;;;;;5052345;28;20540;-74
2023/03/19 12:59:44;;;;;;;18.13;13.82;;;;;;;;;;5089156;28;20131;-74
2023/03/19 13:02:19;;;;;;;20.67;14.57;;;;;;;;;;5071341;28;20052;-74
2023/03/19 13:05:08;;;;;;;19.58;14.57;;;;;;;;;;5089397;28;20052;-74
2023/03/19 13:07:47;;;;;;;19.55;13.65;;;;;;;;;;5042630;28;20048;-74
2023/03/19 13:10:17;;;;;;;20.80;13.98;;;;;;;;;;5088590;28;20468;-74
2023/03/19 13:12:44;;;;;;;20.98;14.77;;;;;;;;;;5053903;28;20126;-74
2023/03/19 13:15:23;;;;;;;19.88;14.15;;;;;;;;;;5031039;28;20056;-75
2023/03/19 13:17:55;;;;;;;18.67;13.80;;;;;;;;;;5031000;28;20071;-75
2023/03/19 13:20:36;;;;;;;19.63;14.27;;;;;;;;;;5049004;28;20405;-75
2023/03/19 13:23:04;;;;;;;21.80;16.08;;;;;;;;;;5032010;28;20072;-75
2023/03/19 13:25:36;;;;;;;26.02;17.02;;;;;;;;;;5048689;28;20409;-74
2023/03/19 13:28:12;;;;;;;26.80;18.70;;;;;;;;;;5014945;28;20158;-75
2023/03/19 13:30:39;;;;;;;27.83;18.58;;;;;;;;;;5014845;28;20064;-75
2023/03/19 13:33:06;;;;;;;29.63;18.98;;;;;;;;;;5030733;28;20135;-74
2023/03/19 13:35:45;;;;;;;27.48;19.00;;;;;;;;;;5048128;28;20219;-75
2023/03/19 13:38:30;;;;;;;27.85;18.30;;;;;;;;;;5058768;28;20097;-76
2023/03/19 13:40:57;;;;;;;27.95;18.83;;;;;;;;;;5051127;28;20036;-75
2023/03/19 13:43:29;;;;;;;28.67;19.25;;;;;;;;;;5068868;28;20084;-75
2023/03/19 13:46:10;;;;;;;27.75;19.15;;;;;;;;;;5034019;28;20059;-75
2023/03/19 13:48:45;;;;;;;26.98;18.00;;;;;;;;;;5068960;28;20049;-76
2023/03/19 13:51:11;;;;;;;25.43;17.87;;;;;;;;;;5046075;28;20045;-75
2023/03/19 13:53:37;;;;;;;30.70;19.98;;;;;;;;;;5033357;28;20063;-75
2023/03/19 13:56:05;;;;;;;31.70;18.80;;;;;;;;;;5051636;28;20037;-76
2023/03/19 13:58:53;;;;;;;31.35;19.15;;;;;;;;;;5051812;28;20056;-76
2023/03/19 14:01:26;;;;;;;28.75;19.58;;;;;;;;;;5034873;28;20037;-75
2023/03/19 14:03:53;;;;;;;31.38;19.80;;;;;;;;;;5051291;28;20120;-75
2023/03/19 14:06:33;;;;;;;32.47;19.90;;;;;;;;;;5051680;28;20501;-75
2023/03/19 14:09:00;;;;;;;31.63;19.27;;;;;;;;;;5051127;28;20413;-76
2023/03/19 14:11:32;;;;;;;31.13;19.17;;;;;;;;;;5034063;28;20049;-76
2023/03/19 14:14:01;;;;;;;29.73;18.48;;;;;;;;;;5051306;28;20049;-75
2023/03/19 14:16:33;;;;;;;28.73;17.92;;;;;;;;;;5036324;28;20394;-75
2023/03/19 14:19:00;;;;;;;27.25;17.85;;;;;;;;;;5051011;28;20397;-76
2023/03/19 14:21:45;;;;;;;30.77;18.70;;;;;;;;;;5052989;28;20048;-75
2023/03/19 14:24:30;;;;;;;32.70;18.20;;;;;;;;;;5052649;28;20060;-76
2023/03/19 14:27:02;;;;;;;28.30;18.23;;;;;;;;;;5062838;28;20045;-75
2023/03/19 14:29:28;;;;;;;27.73;17.55;;;;;;;;;;5062793;28;20493;-76
2023/03/19 14:31:57;;;;;;;28.60;18.02;;;;;;;;;;5066580;28;20055;-76